Time;durP1;ratioP1;P1;durP2;ratioP2;P2;SDS_P1;SDS_P2;PMS_P1;PMS_P2;Temp;Humidity;BMP_temperature;BMP_pressure;BME280_temperature;BME280_humidity;BME280_pressure;Samples;Min_cycle;Max_cycle;Signal;HPM_P1;HPM_P2
2021/08/21 00:00:07;;;;;;;24.35;18.75;;;;;;;14.02;100.00;101825.06;2614147;31;20158;-67
2021/08/21 00:02:36;;;;;;;28.25;19.13;;;;;;;14.04;100.00;101824.94;2616242;36;20034;-68
2021/08/21 00:05:06;;;;;;;28.20;20.30;;;;;;;13.99;100.00;101830.75;2615851;36;20162;-67
2021/08/21 00:07:34;;;;;;;27.02;19.58;;;;;;;13.90;100.00;101828.84;2615691;36;20061;-67
2021/08/21 00:10:05;;;;;;;25.23;19.53;;;;;;;13.79;100.00;101828.94;2614371;31;20547;-68
2021/08/21 00:12:34;;;;;;;25.92;18.38;;;;;;;13.77;100.00;101825.50;2616854;31;20038;-67
2021/08/21 00:15:06;;;;;;;25.43;18.00;;;;;;;13.79;100.00;101823.50;2616002;36;20046;-67
2021/08/21 00:17:34;;;;;;;23.55;17.48;;;;;;;13.73;100.00;101829.47;2615942;36;20085;-67
2021/08/21 00:20:02;;;;;;;25.02;18.45;;;;;;;13.67;100.00;101826.28;2616245;36;20187;-67
2021/08/21 00:22:30;;;;;;;28.38;19.70;;;;;;;13.67;100.00;101829.00;2614897;36;20031;-68
2021/08/21 00:24:59;;;;;;;28.48;20.42;;;;;;;13.72;100.00;101833.16;2616391;36;20602;-67
2021/08/21 00:27:27;;;;;;;32.42;19.38;;;;;;;13.78;100.00;101827.19;2616920;31;20464;-67
2021/08/21 00:29:55;;;;;;;37.28;23.08;;;;;;;13.66;100.00;101821.88;2614100;36;20174;-69
2021/08/21 00:32:26;;;;;;;27.00;20.23;;;;;;;13.72;100.00;101827.75;2615672;36;20038;-68
2021/08/21 00:34:55;;;;;;;31.50;21.55;;;;;;;13.70;100.00;101832.44;2617021;36;20128;-68
2021/08/21 00:37:23;;;;;;;35.17;22.73;;;;;;;13.66;100.00;101829.13;2615695;36;20162;-67
2021/08/21 00:39:51;;;;;;;31.55;21.25;;;;;;;13.69;100.00;101828.00;2615814;31;20370;-67
2021/08/21 00:42:19;;;;;;;28.52;20.85;;;;;;;13.71;100.00;101826.03;2615283;36;20050;-68
2021/08/21 00:44:48;;;;;;;33.25;22.83;;;;;;;13.61;100.00;101818.69;2614827;36;20022;-68
2021/08/21 00:47:18;;;;;;;28.95;20.83;;;;;;;13.62;100.00;101822.28;2616234;36;20031;-67
2021/08/21 00:49:51;;;;;;;30.08;21.33;;;;;;;13.64;100.00;101817.59;2612269;36;20130;-67
2021/08/21 00:52:21;;;;;;;36.15;22.95;;;;;;;13.60;100.00;101813.44;2613843;31;20147;-68
2021/08/21 00:54:50;;;;;;;33.75;22.15;;;;;;;13.60;100.00;101816.13;2615560;36;20103;-67
2021/08/21 00:57:19;;;;;;;37.15;22.52;;;;;;;13.64;100.00;101814.88;2615868;36;20154;-67
2021/08/21 00:59:50;;;;;;;34.88;23.50;;;;;;;13.56;100.00;101818.25;2613792;36;20675;-67
2021/08/21 01:02:18;;;;;;;42.65;25.55;;;;;;;13.51;100.00;101819.63;2616166;36;20026;-69
2021/08/21 01:04:53;;;;;;;34.42;23.73;;;;;;;13.51;100.00;101817.78;2616288;36;20144;-68
2021/08/21 01:07:24;;;;;;;33.35;23.48;;;;;;;13.55;100.00;101823.81;2616201;36;20118;-68
2021/08/21 01:09:53;;;;;;;36.55;24.20;;;;;;;13.46;100.00;101814.63;2615247;36;20076;-68
2021/08/21 01:12:22;;;;;;;;;;;;;;;13.52;100.00;101815.97;2615749;36;20583;-67
2021/08/21 01:14:52;;;;;;;34.05;22.90;;;;;;;13.44;100.00;101820.16;2616194;36;19986;-68
2021/08/21 01:17:21;;;;;;;33.67;22.05;;;;;;;13.38;100.00;101819.81;2615781;36;20025;-67
2021/08/21 01:19:53;;;;;;;38.00;24.98;;;;;;;13.37;100.00;101820.81;2616048;36;20084;-68
2021/08/21 01:22:26;;;;;;;41.88;26.77;;;;;;;13.30;100.00;101821.31;2615625;31;20031;-68
2021/08/21 01:24:55;;;;;;;41.85;26.02;;;;;;;13.31;100.00;101809.50;2616083;36;20121;-68
2021/08/21 01:27:28;;;;;;;46.50;29.83;;;;;;;13.38;100.00;101819.81;2615317;36;20126;-67
2021/08/21 01:29:56;;;;;;;43.22;25.98;;;;;;;13.40;100.00;101820.56;2613571;36;20102;-68
2021/08/21 01:35:01;;;;;;;38.58;25.20;;;;;;;13.35;100.00;101814.69;2613837;36;20022;-68
2021/08/21 01:37:30;;;;;;;42.53;26.02;;;;;;;13.33;100.00;101823.75;2615552;31;20548;-68
2021/08/21 01:39:59;;;;;;;41.05;25.23;;;;;;;13.38;100.00;101819.81;2616642;36;20389;-68
2021/08/21 01:42:29;;;;;;;43.10;27.92;;;;;;;13.31;100.00;101820.31;2616007;36;20150;-67
2021/08/21 01:44:58;;;;;;;42.63;26.65;;;;;;;13.25;100.00;101814.56;2615919;36;20038;-67
2021/08/21 01:47:26;;;;;;;45.85;28.13;;;;;;;13.28;100.00;101811.59;2616412;36;20150;-68
2021/08/21 01:49:58;;;;;;;50.33;30.77;;;;;;;13.31;100.00;101809.50;2616182;36;20081;-67
2021/08/21 01:52:27;;;;;;;51.40;28.20;;;;;;;13.34;100.00;101813.84;2615883;36;20684;-67
2021/08/21 01:54:55;;;;;;;46.95;28.40;;;;;;;13.35;100.00;101811.97;2614159;36;20050;-68
2021/08/21 01:57:23;;;;;;;56.20;30.60;;;;;;;13.31;100.00;101801.41;2616330;36;20137;-67
2021/08/21 01:59:55;;;;;;;60.13;31.27;;;;;;;13.41;100.00;101803.34;2613931;36;20069;-68
2021/08/21 02:02:25;;;;;;;59.53;33.00;;;;;;;13.44;100.00;101811.19;2615172;36;20046;-68
2021/08/21 02:04:53;;;;;;;68.78;32.85;;;;;;;13.43;100.00;101809.50;2616620;36;20435;-67
2021/08/21 02:07:21;;;;;;;51.20;30.77;;;;;;;13.45;100.00;101811.03;2615444;36;20077;-67
2021/08/21 02:09:50;;;;;;;72.00;33.72;;;;;;;13.41;100.00;101811.44;2617087;36;20351;-68
2021/08/21 02:12:18;;;;;;;59.65;32.60;;;;;;;13.40;100.00;101812.47;2614976;31;20487;-67
2021/08/21 02:14:46;;;;;;;64.72;32.70;;;;;;;13.35;100.00;101809.28;2615506;31;20035;-67
2021/08/21 02:17:18;;;;;;;66.50;32.95;;;;;;;13.31;100.00;101804.09;2617415;36;20415;-68
2021/08/21 02:19:46;;;;;;;54.85;32.85;;;;;;;13.37;100.00;101807.28;2617922;31;20500;-67
2021/08/21 02:22:14;;;;;;;65.53;33.42;;;;;;;13.32;100.00;101799.53;2615958;31;20134;-67
2021/08/21 02:24:51;;;;;;;52.08;31.33;;;;;;;13.40;100.00;101801.66;2616840;31;20437;-67
2021/08/21 02:27:22;;;;;;;46.47;27.48;;;;;;;13.44;100.00;101803.06;2617015;36;20023;-68
2021/08/21 02:29:51;;;;;;;45.08;27.75;;;;;;;13.42;100.00;101811.31;2616641;36;20456;-67
2021/08/21 02:32:21;;;;;;;55.25;30.60;;;;;;;13.38;100.00;101811.72;2616031;36;20554;-66
2021/08/21 02:34:50;;;;;;;58.28;31.83;;;;;;;13.37;100.00;101812.69;2616657;36;20129;-68
2021/08/21 02:37:19;;;;;;;47.10;28.83;;;;;;;13.47;100.00;101813.63;2617324;36;21554;-68
2021/08/21 02:39:47;;;;;;;;;;;;;;;13.44;100.00;101816.59;2616966;36;20023;-67
2021/08/21 02:42:16;;;;;;;60.70;32.22;;;;;;;13.46;100.00;101817.34;2616148;36;19946;-68
2021/08/21 02:44:45;;;;;;;64.63;33.75;;;;;;;13.45;100.00;101810.19;2616268;36;20077;-68
2021/08/21 02:47:13;;;;;;;51.35;30.63;;;;;;;13.49;100.00;101817.06;2617630;36;20074;-68
2021/08/21 02:49:44;;;;;;;52.95;31.02;;;;;;;13.59;100.00;101822.53;2616564;36;20030;-68
2021/08/21 02:52:12;;;;;;;55.28;31.63;;;;;;;13.64;100.00;101814.88;2617219;31;20162;-68
2021/08/21 02:54:40;;;;;;;60.60;32.70;;;;;;;13.60;100.00;101811.59;2616671;36;20235;-68
2021/08/21 02:59:44;;;;;;;53.80;30.27;;;;;;;13.76;100.00;101808.41;2612584;36;20030;-69
2021/08/21 03:02:12;;;;;;;43.77;27.90;;;;;;;13.76;100.00;101804.84;2615401;36;20126;-68
2021/08/21 03:04:43;;;;;;;52.75;30.40;;;;;;;13.63;100.00;101805.03;2616621;36;20030;-68
2021/08/21 03:07:11;;;;;;;54.30;30.35;;;;;;;13.72;100.00;101801.56;2615229;31;20146;-67
2021/08/21 03:09:40;;;;;;;49.15;29.23;;;;;;;13.76;100.00;101802.97;2615798;36;20069;-68
2021/08/21 03:12:08;;;;;;;49.53;30.17;;;;;;;13.78;100.00;101805.56;2616150;36;20632;-68
2021/08/21 03:14:37;;;;;;;48.53;29.67;;;;;;;13.75;100.00;101803.13;2616098;36;20334;-69
2021/08/21 03:17:10;;;;;;;49.17;29.10;;;;;;;13.82;100.00;101809.72;2616550;36;20103;-68
2021/08/21 03:19:38;;;;;;;50.95;28.67;;;;;;;13.84;100.00;101805.88;2614799;31;20038;-68
2021/08/21 03:22:09;;;;;;;51.73;27.77;;;;;;;13.75;100.00;101808.53;2616544;36;20030;-67
2021/08/21 03:24:37;;;;;;;59.88;31.40;;;;;;;13.71;100.00;101802.53;2615966;36;20611;-68
2021/08/21 03:27:06;;;;;;;55.67;30.55;;;;;;;13.76;100.00;101802.13;2615673;31;20110;-68
2021/08/21 03:29:34;;;;;;;50.55;29.05;;;;;;;13.82;100.00;101807.00;2616152;36;20163;-67
2021/08/21 03:32:02;;;;;;;58.53;30.00;;;;;;;13.79;100.00;101805.41;2615563;36;20027;-68
2021/08/21 03:34:32;;;;;;;51.38;31.13;;;;;;;13.86;100.00;101808.47;2616904;36;20346;-68
2021/08/21 03:37:01;;;;;;;61.03;31.25;;;;;;;13.89;100.00;101805.47;2616256;36;20022;-68
2021/08/21 03:39:32;;;;;;;45.80;26.35;;;;;;;13.92;100.00;101816.03;2616548;36;20061;-68
2021/08/21 03:42:00;;;;;;;44.08;26.63;;;;;;;13.94;100.00;101811.38;2616156;36;20606;-69
2021/08/21 03:44:28;;;;;;;50.97;28.60;;;;;;;14.02;100.00;101806.13;2614631;36;20035;-68
2021/08/21 03:46:57;;;;;;;47.00;28.13;;;;;;;14.07;100.00;101812.97;2616326;36;20319;-68
2021/08/21 03:49:25;;;;;;;57.20;29.30;;;;;;;13.95;100.00;101802.22;2616801;36;20086;-68
2021/08/21 03:51:53;;;;;;;59.17;30.95;;;;;;;13.96;100.00;101808.53;2616315;36;20126;-68
2021/08/21 03:54:21;;;;;;;50.33;28.83;;;;;;;14.00;100.00;101812.66;2614383;36;20034;-68
2021/08/21 03:56:52;;;;;;;55.60;29.10;;;;;;;14.07;100.00;101810.28;2615461;36;20362;-68
2021/08/21 03:59:20;;;;;;;55.30;29.85;;;;;;;14.02;100.00;101803.41;2614018;36;20127;-68
2021/08/21 04:01:49;;;;;;;58.83;30.35;;;;;;;14.04;100.00;101805.13;2614782;36;20126;-67
2021/08/21 04:04:17;;;;;;;54.28;28.50;;;;;;;14.04;100.00;101797.84;2615370;36;20096;-67
2021/08/21 04:06:45;;;;;;;56.17;29.65;;;;;;;14.00;100.00;101805.41;2616623;36;20146;-67
2021/08/21 04:09:13;;;;;;;49.97;27.95;;;;;;;14.16;100.00;101814.84;2617535;31;20519;-69
2021/08/21 04:11:42;;;;;;;52.72;28.63;;;;;;;14.06;100.00;101811.25;2616996;31;20519;-68
2021/08/21 04:14:12;;;;;;;53.83;29.67;;;;;;;14.01;100.00;101804.38;2613414;36;20129;-68
2021/08/21 04:16:41;;;;;;;53.92;27.58;;;;;;;14.07;100.00;101812.97;2615325;31;20050;-68
2021/08/21 04:19:09;;;;;;;50.70;29.05;;;;;;;14.17;100.00;101813.88;2615441;36;20061;-69
2021/08/21 04:21:39;;;;;;;55.78;30.05;;;;;;;14.07;100.00;101810.28;2615010;36;20683;-68
2021/08/21 04:24:08;;;;;;;49.80;27.55;;;;;;;14.04;100.00;101813.25;2615879;36;20085;-69
2021/08/21 04:26:36;;;;;;;55.30;28.20;;;;;;;14.15;100.00;101805.03;2616567;36;20616;-69
2021/08/21 04:29:04;;;;;;;48.38;26.10;;;;;;;14.15;100.00;101821.28;2616456;36;20031;-68
2021/08/21 04:31:36;;;;;;;45.75;26.13;;;;;;;14.17;100.00;101811.16;2613880;47;20149;-67
2021/08/21 04:34:04;;;;;;;48.88;26.48;;;;;;;14.26;100.00;101813.03;2615521;36;22241;-68
2021/08/21 04:36:32;;;;;;;45.63;23.75;;;;;;;14.27;100.00;101805.81;2615388;36;20166;-69
2021/08/21 04:39:00;;;;;;;41.07;25.13;;;;;;;14.21;100.00;101812.63;2616555;36;20582;-68
2021/08/21 04:41:29;;;;;;;44.22;25.50;;;;;;;14.15;100.00;101802.34;2615232;36;20535;-68
2021/08/21 04:43:57;;;;;;;40.15;23.90;;;;;;;14.15;100.00;101796.91;2614706;36;20059;-69
2021/08/21 04:46:25;;;;;;;46.30;24.27;;;;;;;14.17;100.00;101801.19;2615444;36;20081;-69
2021/08/21 04:48:56;;;;;;;44.07;25.17;;;;;;;14.27;100.00;101801.22;2616104;36;20077;-68
2021/08/21 04:51:24;;;;;;;43.83;24.20;;;;;;;14.28;100.00;101802.94;2615058;36;20110;-68
2021/08/21 04:53:52;;;;;;;42.22;23.55;;;;;;;14.28;100.00;101802.94;2614862;36;20154;-67
2021/08/21 04:56:20;;;;;;;45.10;24.58;;;;;;;14.26;100.00;101798.66;2614111;36;20030;-70
2021/08/21 04:58:49;;;;;;;44.63;24.13;;;;;;;14.23;100.00;101804.34;2616303;31;20607;-67
2021/08/21 05:01:17;;;;;;;41.20;23.48;;;;;;;14.36;100.00;101807.69;2614886;36;20517;-68
2021/08/21 05:03:45;;;;;;;38.92;22.83;;;;;;;14.47;100.00;101814.81;2615765;31;20492;-68
2021/08/21 05:06:16;;;;;;;39.38;22.83;;;;;;;14.54;100.00;101802.44;2616497;36;20034;-68
2021/08/21 05:08:45;;;;;;;38.65;21.85;;;;;;;14.48;100.00;101811.13;2616131;31;20548;-68
2021/08/21 05:11:13;;;;;;;38.25;22.63;;;;;;;14.49;100.00;101804.72;2616350;36;20548;-67
2021/08/21 05:13:41;;;;;;;35.50;21.73;;;;;;;14.49;100.00;101810.16;2614941;36;20178;-67
2021/08/21 05:16:11;;;;;;;40.42;23.75;;;;;;;14.41;100.00;101809.97;2616323;36;20528;-67
2021/08/21 05:18:44;;;;;;;44.13;24.60;;;;;;;14.46;100.00;101808.56;2616167;36;20241;-69
2021/08/21 05:21:14;;;;;;;41.78;23.15;;;;;;;14.48;100.00;101813.84;2615613;36;20029;-68
2021/08/21 05:23:44;;;;;;;38.45;23.45;;;;;;;14.56;100.00;101816.72;2615045;36;20038;-68
2021/08/21 05:26:16;;;;;;;43.45;24.70;;;;;;;14.63;100.00;101806.19;2615906;36;20034;-68
2021/08/21 05:28:44;;;;;;;40.45;24.63;;;;;;;14.76;100.00;101805.94;2616339;36;20030;-68
2021/08/21 05:31:12;;;;;;;42.57;24.50;;;;;;;14.76;100.00;101804.09;2614971;31;20162;-68
2021/08/21 05:33:41;;;;;;;43.40;25.35;;;;;;;14.78;100.00;101802.09;2615445;36;20411;-68
2021/08/21 05:36:09;;;;;;;45.47;25.27;;;;;;;14.87;100.00;101800.41;2615457;36;20074;-68
2021/08/21 05:38:38;;;;;;;41.22;23.83;;;;;;;14.85;100.00;101799.69;2616051;36;20386;-67
2021/08/21 05:41:09;;;;;;;43.55;24.23;;;;;;;15.01;100.00;101799.97;2616512;31;20496;-68
2021/08/21 05:43:38;;;;;;;41.50;24.58;;;;;;;15.15;100.00;101795.09;2615389;36;20121;-68
2021/08/21 05:46:06;;;;;;;42.80;24.33;;;;;;;15.23;100.00;101797.97;2614728;36;20121;-68
2021/08/21 05:48:34;;;;;;;46.10;24.60;;;;;;;15.21;100.00;101794.56;2615761;36;20553;-69
2021/08/21 05:51:02;;;;;;;39.67;24.05;;;;;;;15.44;100.00;101796.94;2616335;36;20050;-68
2021/08/21 05:53:30;;;;;;;38.80;21.83;;;;;;;15.56;100.00;101798.50;2616632;36;20150;-68
2021/08/21 05:55:59;;;;;;;39.50;21.70;;;;;;;15.70;100.00;101806.19;2615868;36;20031;-69
2021/08/21 05:58:29;;;;;;;37.23;22.20;;;;;;;15.85;100.00;101803.03;2617297;36;20050;-68
2021/08/21 06:00:58;;;;;;;34.15;20.52;;;;;;;15.86;100.00;101804.75;2616269;36;20154;-68
2021/08/21 06:03:26;;;;;;;34.67;20.92;;;;;;;15.83;100.00;101800.47;2616247;36;20158;-69
2021/08/21 06:05:54;;;;;;;32.87;20.37;;;;;;;15.85;100.00;101805.75;2616915;36;20435;-67
2021/08/21 06:08:22;;;;;;;33.65;19.92;;;;;;;15.83;100.00;101800.47;2615565;36;20109;-69
2021/08/21 06:10:51;;;;;;;33.05;20.17;;;;;;;15.83;100.00;101799.63;2617013;36;20125;-69
2021/08/21 06:13:19;;;;;;;30.35;18.52;;;;;;;15.83;100.00;101805.06;2616257;31;20998;-68
2021/08/21 06:15:50;;;;;;;29.83;19.65;;;;;;;15.70;100.00;101808.88;2615873;36;20114;-68
2021/08/21 06:18:18;;;;;;;31.02;19.10;;;;;;;15.62;100.00;101807.91;2616330;36;20114;-69
2021/08/21 06:20:47;;;;;;;30.60;19.65;;;;;;;15.68;100.00;101813.63;2616427;36;20043;-67
2021/08/21 06:23:15;;;;;;;34.80;19.98;;;;;;;15.75;100.00;101819.31;2616382;36;20063;-68
2021/08/21 06:25:43;;;;;;;30.70;18.83;;;;;;;15.77;100.00;101818.16;2616279;36;20094;-68
2021/08/21 06:28:12;;;;;;;31.50;19.50;;;;;;;15.72;100.00;101822.31;2616914;36;20287;-68
2021/08/21 06:30:40;;;;;;;31.92;19.20;;;;;;;15.65;100.00;101813.91;2616161;36;20121;-69
2021/08/21 06:33:11;;;;;;;37.28;20.63;;;;;;;15.52;100.00;101822.34;2615852;36;20039;-67
2021/08/21 06:35:39;;;;;;;34.40;20.85;;;;;;;15.55;100.00;101830.22;2616635;36;20445;-69
2021/08/21 06:38:07;;;;;;;32.28;19.90;;;;;;;15.55;100.00;101829.34;2615981;36;20106;-68
2021/08/21 06:40:35;;;;;;;35.13;20.97;;;;;;;15.66;100.00;101834.59;2616889;36;20045;-68
2021/08/21 06:43:04;;;;;;;31.65;19.40;;;;;;;15.76;100.00;101830.00;2617347;36;20030;-68
2021/08/21 06:45:32;;;;;;;32.67;19.55;;;;;;;15.79;100.00;101830.78;2616276;36;20078;-68
2021/08/21 06:48:00;;;;;;;33.05;19.63;;;;;;;15.88;100.00;101827.16;2616614;36;20029;-68
2021/08/21 06:50:33;;;;;;;31.27;19.60;;;;;;;15.91;100.00;101826.88;2616474;31;20042;-69
2021/08/21 06:53:02;;;;;;;37.70;21.25;;;;;;;15.95;100.00;101833.72;2615752;36;20041;-68
2021/08/21 06:55:30;;;;;;;38.15;21.13;;;;;;;16.01;100.00;101837.72;2615388;36;20033;-68
2021/08/21 06:57:59;;;;;;;31.07;20.00;;;;;;;16.02;100.00;101832.13;2616962;36;20126;-67
2021/08/21 07:00:29;;;;;;;33.70;21.23;;;;;;;15.87;100.00;101828.16;2614406;36;20134;-69
2021/08/21 07:02:57;;;;;;;35.05;20.40;;;;;;;15.89;100.00;101827.03;2615561;36;20118;-69
2021/08/21 07:05:25;;;;;;;37.83;21.63;;;;;;;15.91;100.00;101830.44;2617228;36;20077;-69
2021/08/21 07:07:56;;;;;;;37.15;22.27;;;;;;;16.08;100.00;101834.25;2616856;36;20081;-69
2021/08/21 07:10:24;;;;;;;36.45;22.35;;;;;;;16.15;100.00;101837.25;2615929;36;20046;-66
2021/08/21 07:12:53;;;;;;;34.90;20.27;;;;;;;16.42;100.00;101835.53;2617038;36;20118;-70
2021/08/21 07:15:21;;;;;;;38.85;20.98;;;;;;;16.48;100.00;101839.53;2614984;36;20619;-67
2021/08/21 07:17:49;;;;;;;33.70;21.03;;;;;;;16.75;100.00;101834.03;2616507;36;20050;-68
2021/08/21 07:20:17;;;;;;;31.95;20.48;;;;;;;16.72;100.00;101831.63;2616931;36;20073;-67
2021/08/21 07:22:45;;;;;;;34.80;20.77;;;;;;;16.90;100.00;101830.84;2615103;36;20130;-67
2021/08/21 07:25:16;;;;;;;32.65;20.92;;;;;;;16.98;100.00;101833.66;2616241;36;20050;-68
2021/08/21 07:27:44;;;;;;;32.17;20.65;;;;;;;17.21;100.00;101827.75;2617291;36;20130;-67
2021/08/21 07:30:13;;;;;;;31.80;20.13;;;;;;;17.35;100.00;101824.47;2615194;36;20077;-68
2021/08/21 07:32:42;;;;;;;31.15;20.50;;;;;;;17.48;100.00;101824.91;2615708;36;20042;-69
2021/08/21 07:35:11;;;;;;;33.10;21.52;;;;;;;17.58;100.00;101815.78;2616493;36;20154;-68
2021/08/21 07:37:39;;;;;;;33.08;21.92;;;;;;;17.74;100.00;101818.66;2615582;36;20539;-68
2021/08/21 07:40:09;;;;;;;37.83;23.83;;;;;;;17.53;100.00;101805.38;2617382;31;20530;-67
2021/08/21 07:42:40;;;;;;;36.95;21.20;;;;;;;17.43;100.00;101816.38;2616400;36;20086;-67
2021/08/21 07:45:10;;;;;;;36.08;22.90;;;;;;;17.54;100.00;101817.16;2615695;36;20074;-67
2021/08/21 07:47:38;;;;;;;41.22;24.20;;;;;;;17.48;100.00;101826.78;2616425;36;20519;-68
2021/08/21 07:50:07;;;;;;;38.50;22.50;;;;;;;17.58;100.00;101813.06;2616344;36;20062;-67
2021/08/21 07:52:36;;;;;;;47.33;25.55;;;;;;;17.64;100.00;101820.63;2615529;36;20642;-68
2021/08/21 07:55:04;;;;;;;39.72;24.90;;;;;;;17.66;100.00;101815.84;2615504;36;20050;-68
2021/08/21 07:57:32;;;;;;;41.33;24.50;;;;;;;17.78;100.00;101817.28;2616711;36;20165;-67
2021/08/21 08:00:03;;;;;;;44.03;24.87;;;;;;;17.96;100.00;101816.41;2616932;36;20042;-68
2021/08/21 08:02:31;;;;;;;44.92;23.85;;;;;;;17.83;100.00;101817.69;2616250;31;20476;-67
2021/08/21 08:05:00;;;;;;;43.53;24.43;;;;;;;18.02;100.00;101815.75;2616404;36;20038;-68
2021/08/21 08:07:28;;;;;;;41.58;24.45;;;;;;;18.17;100.00;101814.16;2616883;36;20610;-68
2021/08/21 08:09:57;;;;;;;40.07;24.33;;;;;;;18.02;100.00;101811.19;2616056;36;20073;-67
2021/08/21 08:12:25;;;;;;;33.40;22.05;;;;;;;18.01;100.00;101824.97;2614965;36;20370;-69
2021/08/21 08:14:53;;;;;;;37.33;22.93;;;;;;;18.04;100.00;101816.47;2616041;36;20760;-69
2021/08/21 08:17:24;;;;;;;35.70;22.00;;;;;;;18.21;100.00;101812.81;2617475;36;20576;-68
2021/08/21 08:19:53;;;;;;;35.85;22.35;;;;;;;18.52;100.00;101814.09;2617223;31;20031;-68
2021/08/21 08:22:22;;;;;;;32.55;21.55;;;;;;;18.75;100.00;101811.63;2617015;36;20049;-67
2021/08/21 08:24:50;;;;;;;30.30;21.48;;;;;;;18.88;100.00;101812.03;2616425;36;20034;-69
2021/08/21 08:27:18;;;;;;;35.75;21.45;;;;;;;19.06;100.00;101809.13;2617607;36;20073;-68
2021/08/21 08:29:47;;;;;;;36.03;20.77;;;;;;;19.10;100.00;101809.69;2616400;36;20134;-69
2021/08/21 08:32:15;;;;;;;32.58;20.90;;;;;;;19.18;100.00;101812.38;2616732;36;20367;-68
2021/08/21 08:34:46;;;;;;;36.83;21.70;;;;;;;19.17;100.00;101813.44;2615774;36;20053;-68
2021/08/21 08:37:14;;;;;;;30.25;19.88;;;;;;;19.33;100.00;101814.44;2616701;36;20113;-69
2021/08/21 08:39:43;;;;;;;31.77;19.48;;;;;;;19.40;100.00;101815.47;2617075;36;20031;-68
2021/08/21 08:42:14;;;;;;;28.35;17.40;;;;;;;19.36;100.00;101822.28;2616666;36;20029;-68
2021/08/21 08:47:39;;;;;;;15.30;10.18;;;;;;;19.24;100.00;101809.00;2615737;36;20057;-68
2021/08/21 08:50:12;;;;;;;13.45;10.57;;;;;;;19.32;100.00;101818.22;2614294;36;20126;-67
2021/08/21 08:52:41;;;;;;;13.88;10.07;;;;;;;19.58;100.00;101813.44;2616632;36;20062;-68
2021/08/21 08:55:10;;;;;;;;;;;;;;;19.97;100.00;101811.84;2616734;36;20093;-68
2021/08/21 08:57:40;;;;;;;11.95;9.30;;;;;;;20.32;100.00;101809.69;2616677;36;19950;-66
2021/08/21 09:00:13;;;;;;;25.02;18.48;;;;;;;20.61;100.00;101809.03;2616453;36;20081;-66
2021/08/21 09:02:43;;;;;;;27.65;18.08;;;;;;;21.04;100.00;101810.47;2616139;36;20520;-66
2021/08/21 09:05:16;;;;;;;24.27;18.17;;;;;;;21.27;100.00;101803.09;2616874;36;20035;-66
2021/08/21 09:07:48;;;;;;;18.83;14.32;;;;;;;22.05;100.00;101795.53;2617271;31;20469;-67
2021/08/21 09:10:22;;;;;;;17.98;13.02;;;;;;;22.26;100.00;101796.66;2616638;31;20527;-66
2021/08/21 09:12:51;;;;;;;14.65;11.80;;;;;;;22.56;100.00;101796.63;2615018;36;20042;-66
2021/08/21 09:15:26;;;;;;;18.20;13.15;;;;;;;22.04;100.00;101792.97;2615304;31;20046;-67
2021/08/21 09:18:05;;;;;;;19.00;13.30;;;;;;;21.77;100.00;101786.25;2614790;36;20038;-66
2021/08/21 09:20:37;;;;;;;14.18;9.05;;;;;;;21.53;100.00;101786.31;2616338;36;20023;-66
2021/08/21 09:23:20;;;;;;;11.90;8.02;;;;;;;22.14;100.00;101785.31;2607916;36;20574;-66
2021/08/21 09:25:50;;;;;;;11.52;7.68;;;;;;;21.29;100.00;101781.88;2614223;36;20030;-66
2021/08/21 09:28:20;;;;;;;11.50;7.68;;;;;;;21.19;100.00;101789.50;2613507;36;20170;-67
2021/08/21 09:30:50;;;;;;;10.68;7.07;;;;;;;21.23;100.00;101787.22;2616157;36;20045;-66
2021/08/21 09:33:19;;;;;;;11.80;6.47;;;;;;;21.82;100.00;101783.78;2613003;36;20542;-66
2021/08/21 09:35:50;;;;;;;11.68;7.07;;;;;;;22.09;100.00;101786.91;2616450;36;20023;-66
2021/08/21 09:38:18;;;;;;;9.75;6.53;;;;;;;22.16;100.00;101785.97;2616005;36;20073;-65
2021/08/21 09:40:47;;;;;;;11.20;7.13;;;;;;;21.99;100.00;101778.97;2613594;36;20084;-66
2021/08/21 09:43:24;;;;;;;12.10;7.60;;;;;;;22.14;100.00;101781.69;2615934;36;20027;-66
2021/08/21 09:46:10;;;;;;;11.05;6.90;;;;;;;22.59;100.00;101785.25;2615651;31;20037;-66
2021/08/21 09:48:56;;;;;;;12.50;9.25;;;;;;;21.74;100.00;101778.41;2616405;36;20055;-66
2021/08/21 09:51:41;;;;;;;15.05;8.40;;;;;;;21.52;100.00;101783.75;2616912;31;20529;-65
2021/08/21 09:54:11;;;;;;;13.40;9.00;;;;;;;21.94;100.00;101782.28;2615100;36;20027;-65
2021/08/21 09:56:41;;;;;;;11.63;9.07;;;;;;;22.31;100.00;101774.97;2615864;36;20440;-64
2021/08/21 09:59:10;;;;;;;9.60;7.82;;;;;;;23.07;100.00;101773.69;2615180;36;20030;-66
2021/08/21 10:01:39;;;;;;;12.45;7.82;;;;;;;22.79;100.00;101771.75;2613872;36;20126;-65
2021/08/21 10:04:08;;;;;;;17.90;8.57;;;;;;;22.95;100.00;101765.13;2612359;36;20029;-66
2021/08/21 10:06:40;;;;;;;12.07;8.68;;;;;;;22.64;100.00;101771.78;2614714;36;20029;-66
2021/08/21 10:09:09;;;;;;;11.85;8.88;;;;;;;22.64;100.00;101771.78;2614874;36;20138;-66
2021/08/21 10:11:38;;;;;;;12.82;7.97;;;;;;;22.07;100.00;101775.28;2616578;36;20030;-66
2021/08/21 10:14:06;;;;;;;10.05;7.38;;;;;;;22.08;100.00;101766.84;2615756;36;20105;-66
2021/08/21 10:16:35;;;;;;;9.70;6.38;;;;;;;22.50;100.00;101772.69;2616574;36;20610;-66
2021/08/21 10:19:04;;;;;;;10.18;6.90;;;;;;;23.11;100.00;101768.72;2613359;36;20042;-67
2021/08/21 10:21:33;;;;;;;10.18;7.32;;;;;;;23.00;100.00;101762.66;2613657;36;20035;-66
2021/08/21 10:24:04;;;;;;;10.82;7.72;;;;;;;22.87;100.00;101768.88;2615268;36;20034;-67
2021/08/21 10:26:39;;;;;;;11.52;8.77;;;;;;;22.77;100.00;101767.50;2617055;36;20447;-65
2021/08/21 10:29:13;;;;;;;15.60;8.90;;;;;;;22.64;100.00;101770.94;2614856;36;20023;-66
2021/08/21 10:31:44;;;;;;;15.35;8.32;;;;;;;22.28;100.00;101767.13;2615887;36;20039;-66
2021/08/21 10:34:14;;;;;;;11.00;7.93;;;;;;;22.45;100.00;101764.19;2616410;36;20162;-66
2021/08/21 10:36:50;;;;;;;11.75;7.75;;;;;;;22.59;100.00;101760.56;2616498;36;20034;-67
2021/08/21 10:39:27;;;;;;;9.25;7.30;;;;;;;22.68;100.00;101756.63;2616864;36;20158;-65
2021/08/21 10:41:56;;;;;;;10.27;7.43;;;;;;;23.00;100.00;101759.91;2617028;36;20045;-66
2021/08/21 10:44:44;;;;;;;8.57;7.05;;;;;;;23.29;100.00;101755.31;2615363;36;20076;-67
2021/08/21 10:47:38;;;;;;;8.38;6.10;;;;;;;23.38;100.00;101756.03;2617262;36;20022;-67
2021/08/21 10:50:33;;;;;;;13.68;6.68;;;;;;;23.20;100.00;101756.53;2615841;36;20065;-66
2021/08/21 10:53:02;;;;;;;11.27;8.57;;;;;;;22.60;100.00;101756.78;2616503;36;20038;-67
2021/08/21 10:55:43;;;;;;;9.80;6.75;;;;;;;22.52;100.00;101757.72;2617185;36;20443;-62
2021/08/21 10:58:18;;;;;;;13.30;9.38;;;;;;;22.49;100.00;101757.28;2616111;31;20085;-66
2021/08/21 11:00:57;;;;;;;12.55;8.27;;;;;;;22.80;100.00;101753.38;2617049;36;20077;-66
2021/08/21 11:03:47;;;;;;;11.35;8.75;;;;;;;23.76;100.00;101748.28;2618036;31;20034;-66
2021/08/21 11:06:31;;;;;;;9.25;7.30;;;;;;;24.47;100.00;101749.06;2616802;36;20809;-66
2021/08/21 11:09:05;;;;;;;9.05;6.32;;;;;;;23.82;100.00;101740.25;2614937;36;20154;-66
2021/08/21 11:11:40;;;;;;;9.10;6.32;;;;;;;23.99;100.00;101744.41;2617587;36;20176;-66
2021/08/21 11:14:24;;;;;;;7.80;6.15;;;;;;;23.91;100.00;101736.31;2617376;31;20026;-65
2021/08/21 11:16:54;;;;;;;10.05;6.75;;;;;;;23.06;100.00;101742.66;2617624;36;20026;-65
2021/08/21 11:19:42;;;;;;;8.60;5.60;;;;;;;23.11;100.00;101736.59;2616609;36;21926;-65
2021/08/21 11:22:22;;;;;;;10.90;6.18;;;;;;;23.68;100.00;101739.34;2615648;36;20049;-65
2021/08/21 11:25:12;;;;;;;8.05;6.38;;;;;;;23.60;100.00;101748.59;2616461;36;20027;-66